Time;durP1;ratioP1;P1;durP2;ratioP2;P2;SDS_P1;SDS_P2;PMS_P1;PMS_P2;Temp;Humidity;BMP_temperature;BMP_pressure;BME280_temperature;BME280_humidity;BME280_pressure;Samples;Min_cycle;Max_cycle;Signal;HPM_P1;HPM_P2
2021/04/03 00:02:24;;;;;;;15.98;12.98;;;;;;;11.82;77.65;100077.09;5030915;28;20045;-76
2021/04/03 00:04:50;;;;;;;14.95;12.65;;;;;;;11.84;77.23;100071.03;5031679;28;20075;-71
2021/04/03 00:07:16;;;;;;;18.55;13.68;;;;;;;11.91;77.54;100076.44;5030806;28;20407;-73
2021/04/03 00:09:42;;;;;;;14.02;12.52;;;;;;;12.01;77.48;100081.88;5031217;28;20025;-71
2021/04/03 00:12:11;;;;;;;18.05;12.68;;;;;;;12.09;76.58;100078.63;5029515;28;20476;-70
2021/04/03 00:14:36;;;;;;;14.00;12.52;;;;;;;11.97;76.08;100049.88;5029070;28;20091;-71
2021/04/03 00:17:02;;;;;;;16.70;13.20;;;;;;;12.16;76.34;100073.59;5029230;28;20025;-70
2021/04/03 00:19:27;;;;;;;15.27;12.77;;;;;;;12.08;75.69;100065.66;5030224;28;20025;-70
2021/04/03 00:21:53;;;;;;;16.83;12.48;;;;;;;12.21;75.95;100085.81;5030039;28;20036;-71
2021/04/03 00:24:18;;;;;;;14.75;13.15;;;;;;;11.82;76.66;100045.16;5031331;28;20392;-71
2021/04/03 00:26:44;;;;;;;16.10;12.80;;;;;;;11.98;76.85;100080.94;5037197;28;20023;-69
2021/04/03 00:29:09;;;;;;;15.50;13.70;;;;;;;12.01;77.16;100081.88;5050346;28;20403;-71
2021/04/03 00:31:35;;;;;;;14.48;12.68;;;;;;;11.94;77.08;100067.88;5052791;28;20021;-75
2021/04/03 00:34:00;;;;;;;14.50;13.00;;;;;;;12.03;76.75;100083.66;5043501;28;20407;-69
2021/04/03 00:36:26;;;;;;;16.63;13.88;;;;;;;11.92;77.10;100074.72;5035943;28;20037;-71
2021/04/03 00:38:51;;;;;;;16.60;13.40;;;;;;;11.87;77.01;100068.56;5034243;28;20647;-71
2021/04/03 00:41:17;;;;;;;15.48;13.98;;;;;;;11.88;77.18;100073.75;5034096;28;20439;-72
2021/04/03 00:43:42;;;;;;;18.13;14.23;;;;;;;11.85;77.57;100071.13;5033449;28;20038;-72
2021/04/03 00:46:08;;;;;;;15.82;13.25;;;;;;;11.84;77.50;100068.47;5035174;28;20463;-70
2021/04/03 00:48:34;;;;;;;19.20;14.23;;;;;;;11.80;77.59;100071.00;5036685;28;20021;-69
2021/04/03 00:51:00;;;;;;;18.23;13.90;;;;;;;11.70;77.76;100065.53;5034032;28;20064;-70
2021/04/03 00:53:28;;;;;;;16.77;14.50;;;;;;;11.62;78.54;100065.34;5035982;28;20025;-74
2021/04/03 00:55:55;;;;;;;19.63;13.90;;;;;;;11.49;78.18;100040.88;5037266;28;20467;-71
2021/04/03 00:58:21;;;;;;;16.42;14.32;;;;;;;11.57;78.11;100035.91;5034995;28;20474;-71
2021/04/03 01:00:47;;;;;;;51.95;28.73;;;;;;;11.89;77.98;100062.59;5032973;28;20044;-73
2021/04/03 01:03:13;;;;;;;39.20;22.67;;;;;;;11.93;77.04;100068.72;5033244;28;20041;-71
2021/04/03 01:05:39;;;;;;;19.35;14.63;;;;;;;11.90;76.82;100061.75;5034235;28;20487;-72
2021/04/03 01:08:04;;;;;;;15.77;13.48;;;;;;;11.79;77.40;100058.03;5043378;28;20040;-73
2021/04/03 01:10:52;;;;;;;16.45;13.88;;;;;;;11.80;77.46;100057.16;5053304;28;20028;-71
2021/04/03 01:13:51;;;;;;;16.38;14.38;;;;;;;11.78;77.30;100057.13;5053310;28;20033;-71
2021/04/03 01:16:43;;;;;;;18.85;14.77;;;;;;;11.69;77.69;100054.31;5035210;28;20037;-72
2021/04/03 01:19:13;;;;;;;15.82;13.70;;;;;;;11.77;77.54;100063.13;5031649;28;20021;-72
2021/04/03 01:21:57;;;;;;;15.40;13.80;;;;;;;11.70;77.46;100061.25;5039504;28;20406;-73
2021/04/03 01:24:23;;;;;;;17.15;14.75;;;;;;;11.26;78.33;100059.22;5051121;28;20036;-74
2021/04/03 01:27:01;;;;;;;16.83;14.93;;;;;;;10.77;79.74;100027.72;5035909;28;20029;-73
2021/04/03 01:29:36;;;;;;;18.42;14.77;;;;;;;11.21;78.98;100062.50;5034530;28;20411;-78
2021/04/03 01:32:04;;;;;;;16.27;14.48;;;;;;;11.31;78.43;100062.81;5049661;28;20056;-73
2021/04/03 01:37:58;;;;;;;66.15;28.40;;;;;;;11.37;77.47;100040.56;5066104;23;20080;-73
2021/04/03 01:40:24;;;;;;;111.25;42.78;;;;;;;11.41;77.34;100069.09;5024305;28;20053;-74
2021/04/03 01:43:05;;;;;;;137.82;51.35;;;;;;;11.17;78.43;100002.13;5012915;28;20120;-72
2021/04/03 01:45:31;;;;;;;45.42;24.83;;;;;;;11.00;78.75;99986.16;5012625;28;20025;-73
2021/04/03 01:48:01;;;;;;;32.30;19.92;;;;;;;11.44;78.73;100047.63;5013656;28;20017;-72
2021/04/03 01:50:27;;;;;;;;;;;;;;;11.47;78.56;100037.38;5013952;28;20052;-73
2021/04/03 01:52:53;;;;;;;21.08;16.00;;;;;;;11.57;78.13;100041.06;5012289;28;19909;-73
2021/04/03 01:55:19;;;;;;;18.48;14.85;;;;;;;11.51;77.99;100044.38;5029005;28;20051;-73
2021/04/03 01:57:49;;;;;;;19.30;15.55;;;;;;;11.51;78.41;100040.91;5033116;28;20531;-73
2021/04/03 02:00:20;;;;;;;20.27;15.45;;;;;;;11.56;78.23;100040.19;5032977;28;20045;-73
2021/04/03 02:02:46;;;;;;;17.50;14.70;;;;;;;11.45;78.03;100041.63;5032975;28;20118;-71
2021/04/03 02:05:14;;;;;;;18.92;14.10;;;;;;;11.46;77.59;100043.38;5032941;28;20499;-73
2021/04/03 02:07:43;;;;;;;15.80;13.43;;;;;;;11.43;77.78;100041.59;5032881;28;20034;-73
2021/04/03 02:10:10;;;;;;;16.85;15.05;;;;;;;11.46;77.58;100033.03;5032737;28;20407;-72
2021/04/03 02:12:38;;;;;;;18.75;14.73;;;;;;;11.39;78.00;100026.84;5033064;28;20055;-72
2021/04/03 02:15:07;;;;;;;17.00;14.82;;;;;;;11.28;78.62;100023.09;5032772;28;20029;-73
2021/04/03 02:17:34;;;;;;;18.42;14.82;;;;;;;10.97;79.48;100019.66;5031441;28;20035;-72
2021/04/03 02:20:00;;;;;;;17.45;13.77;;;;;;;10.89;80.17;100011.72;5032826;28;20475;-72
2021/04/03 02:22:26;;;;;;;18.20;14.98;;;;;;;10.83;80.05;100002.06;5032583;28;20117;-73
2021/04/03 02:24:53;;;;;;;17.40;15.52;;;;;;;10.86;80.39;100028.81;5031473;28;20114;-73
2021/04/03 02:27:18;;;;;;;17.02;15.20;;;;;;;10.80;80.75;100030.41;5032365;28;20029;-71
2021/04/03 02:29:46;;;;;;;16.75;14.65;;;;;;;10.67;81.14;100015.38;5032708;28;20017;-72
2021/04/03 02:32:11;;;;;;;15.88;14.27;;;;;;;10.61;81.07;100023.81;5032635;28;20086;-72
2021/04/03 02:34:37;;;;;;;18.40;15.40;;;;;;;10.55;81.71;100027.91;5032514;28;20042;-72
2021/04/03 02:37:02;;;;;;;19.05;16.25;;;;;;;10.48;82.16;100022.56;5032051;28;20085;-73
2021/04/03 02:39:28;;;;;;;18.92;14.82;;;;;;;10.49;82.43;100024.34;5032221;28;20495;-73
2021/04/03 02:42:18;;;;;;;19.85;15.95;;;;;;;10.52;82.44;100029.56;5032152;28;20041;-71
2021/04/03 02:44:52;;;;;;;19.95;15.02;;;;;;;10.48;82.54;100032.91;5032291;28;20026;-72
2021/04/03 02:47:23;;;;;;;18.80;15.48;;;;;;;10.38;82.80;100025.72;5032009;28;20072;-72
2021/04/03 02:49:55;;;;;;;18.75;15.80;;;;;;;10.38;83.07;100022.25;5032514;28;20109;-73
2021/04/03 02:52:23;;;;;;;19.05;16.05;;;;;;;10.42;82.98;100035.28;5031042;28;20130;-72
2021/04/03 02:54:51;;;;;;;22.75;16.25;;;;;;;10.38;83.17;100030.88;5031165;28;20037;-71
2021/04/03 02:57:17;;;;;;;21.48;17.27;;;;;;;10.22;83.70;100034.66;5032001;28;20037;-70
2021/04/03 02:59:51;;;;;;;20.98;17.33;;;;;;;10.20;84.40;100032.03;5031993;28;20029;-72
2021/04/03 03:02:20;;;;;;;21.58;16.95;;;;;;;10.15;84.65;100023.25;5031572;28;20167;-73
2021/04/03 03:04:46;;;;;;;22.02;18.05;;;;;;;10.07;84.84;100019.56;5032025;28;20030;-73
2021/04/03 03:07:13;;;;;;;22.45;17.60;;;;;;;10.12;84.51;100023.16;5032047;28;20176;-73
2021/04/03 03:09:42;;;;;;;22.05;17.38;;;;;;;10.11;84.26;100016.25;5031920;28;20419;-73
2021/04/03 03:12:11;;;;;;;22.65;18.67;;;;;;;10.17;84.17;100013.84;5031870;28;20403;-73
2021/04/03 03:14:37;;;;;;;20.47;17.27;;;;;;;10.26;83.57;100018.44;5031809;28;20522;-73
2021/04/03 03:17:03;;;;;;;20.25;17.50;;;;;;;10.27;83.38;100021.88;5031406;28;20252;-73
2021/04/03 03:19:30;;;;;;;21.40;17.80;;;;;;;9.98;83.54;99958.25;5030486;28;20029;-73
2021/04/03 03:21:56;;;;;;;19.15;16.73;;;;;;;10.24;83.70;100020.06;5031679;28;20388;-72
2021/04/03 03:24:22;;;;;;;21.48;17.70;;;;;;;10.26;83.48;100015.84;5031826;28;20091;-73
2021/04/03 03:26:49;;;;;;;23.15;18.20;;;;;;;10.22;83.84;100020.84;5031516;28;20022;-74
2021/04/03 03:29:18;;;;;;;20.33;17.15;;;;;;;9.87;83.84;99963.06;5031373;28;20479;-73
2021/04/03 03:31:44;;;;;;;22.77;19.40;;;;;;;9.62;84.10;99927.91;5031372;28;20403;-73
2021/04/03 03:34:10;;;;;;;21.30;19.00;;;;;;;10.19;83.92;100030.28;5030403;28;20034;-72
2021/04/03 03:36:37;;;;;;;20.88;17.80;;;;;;;10.22;83.80;100023.44;5031451;28;20115;-73
2021/04/03 03:39:07;;;;;;;21.48;18.02;;;;;;;10.15;83.84;100018.09;5031552;28;20026;-73
2021/04/03 03:41:34;;;;;;;21.90;18.30;;;;;;;10.11;83.81;100016.25;5019292;28;20081;-73
2021/04/03 03:44:04;;;;;;;21.23;18.38;;;;;;;10.08;83.82;100011.00;5010129;28;20030;-73
2021/04/03 03:46:30;;;;;;;22.33;18.55;;;;;;;10.13;83.69;100030.06;5011846;28;20040;-72
2021/04/03 03:48:55;;;;;;;22.63;18.45;;;;;;;10.10;83.81;100034.25;5011762;28;20415;-73
2021/04/03 03:51:21;;;;;;;22.70;19.20;;;;;;;10.06;83.91;100019.53;5022677;28;20029;-73
2021/04/03 03:53:46;;;;;;;23.75;19.85;;;;;;;9.98;84.29;100022.72;5011352;28;20519;-72
2021/04/03 03:56:14;;;;;;;22.13;18.42;;;;;;;9.89;84.29;100019.84;5011663;28;20104;-73
2021/04/03 03:58:41;;;;;;;24.10;18.67;;;;;;;9.84;84.64;100017.13;5011234;28;20022;-73
2021/04/03 04:01:06;;;;;;;23.73;19.20;;;;;;;9.86;85.06;100020.63;5011363;28;20431;-73
2021/04/03 04:03:32;;;;;;;26.65;20.15;;;;;;;9.78;85.01;100016.94;5011452;28;20025;-74
2021/04/03 04:05:57;;;;;;;23.10;19.17;;;;;;;9.60;85.22;99996.56;5013200;28;20026;-73
2021/04/03 04:08:23;;;;;;;26.95;18.48;;;;;;;9.86;85.15;100025.78;5015441;28;20081;-72
2021/04/03 04:10:49;;;;;;;21.20;18.58;;;;;;;9.85;85.51;100034.31;5020893;28;20021;-73
2021/04/03 04:13:14;;;;;;;23.25;19.98;;;;;;;9.82;85.95;100036.81;5035356;28;20029;-73
2021/04/03 04:15:39;;;;;;;26.95;21.55;;;;;;;9.81;86.30;100034.19;5034922;28;20026;-73
2021/04/03 04:18:05;;;;;;;25.52;20.58;;;;;;;9.83;86.49;100045.41;5035000;28;20113;-73
2021/04/03 04:20:32;;;;;;;25.65;20.02;;;;;;;9.90;86.60;100028.47;5032782;28;20476;-73
2021/04/03 04:22:58;;;;;;;26.90;23.75;;;;;;;9.84;86.43;100019.72;5034608;28;20029;-73
2021/04/03 04:25:23;;;;;;;26.33;20.00;;;;;;;9.93;86.41;100029.44;5034645;28;20427;-72
2021/04/03 04:27:49;;;;;;;26.98;21.55;;;;;;;9.92;86.22;100021.63;5027251;28;20115;-71
2021/04/03 04:30:15;;;;;;;26.70;22.33;;;;;;;10.01;86.49;100027.97;5016742;28;20041;-73
2021/04/03 04:32:42;;;;;;;25.65;19.75;;;;;;;10.13;86.12;100042.09;5024975;28;20071;-73
2021/04/03 04:35:10;;;;;;;26.38;21.00;;;;;;;10.05;85.97;100031.53;5034356;28;20030;-73
2021/04/03 04:37:38;;;;;;;27.38;23.23;;;;;;;10.17;85.71;100036.22;5034707;28;20385;-73
2021/04/03 04:40:05;;;;;;;26.10;21.70;;;;;;;10.19;85.67;100037.13;5034475;28;20498;-71
2021/04/03 04:42:30;;;;;;;24.40;20.33;;;;;;;10.09;85.96;100035.09;5034310;28;20036;-73
2021/04/03 04:44:56;;;;;;;23.27;20.67;;;;;;;10.17;85.98;100049.97;5034481;28;20112;-73
2021/04/03 04:47:22;;;;;;;26.65;20.65;;;;;;;10.18;86.03;100044.00;5034131;28;20025;-73
2021/04/03 04:49:47;;;;;;;25.65;21.70;;;;;;;10.08;85.95;100036.81;5034340;28;20064;-72
2021/04/03 04:52:13;;;;;;;24.65;19.85;;;;;;;10.13;86.24;100042.09;5032722;28;20117;-73
2021/04/03 04:54:38;;;;;;;24.15;20.38;;;;;;;10.14;85.94;100042.16;5033980;28;20480;-73
2021/04/03 04:57:04;;;;;;;23.77;19.77;;;;;;;10.01;86.42;100022.81;5034092;28;20506;-73
2021/04/03 04:59:30;;;;;;;26.40;21.48;;;;;;;10.12;86.39;100050.63;5033960;28;20577;-73
2021/04/03 05:01:56;;;;;;;25.83;20.88;;;;;;;10.11;86.24;100048.91;5034134;28;20037;-73
2021/04/03 05:04:21;;;;;;;28.40;20.30;;;;;;;10.11;86.30;100046.34;5032785;28;20185;-73
2021/04/03 05:06:47;;;;;;;22.90;20.13;;;;;;;10.07;86.50;100044.47;5034062;28;20188;-73
2021/04/03 05:09:12;;;;;;;24.27;20.35;;;;;;;10.18;86.36;100056.00;5032903;28;20495;-73
2021/04/03 05:11:38;;;;;;;23.98;21.27;;;;;;;9.95;86.29;100008.84;5033419;28;20490;-73
2021/04/03 05:14:04;;;;;;;23.15;20.65;;;;;;;10.20;86.17;100052.66;5034120;28;20027;-73
2021/04/03 05:16:29;;;;;;;24.33;19.50;;;;;;;10.26;86.15;100051.97;5033070;28;20487;-73
2021/04/03 05:18:55;;;;;;;29.58;25.52;;;;;;;10.24;86.34;100057.91;5033474;28;20033;-72
2021/04/03 05:21:20;;;;;;;22.65;19.73;;;;;;;10.20;86.16;100054.34;5033484;28;20030;-74
2021/04/03 05:23:46;;;;;;;23.58;20.20;;;;;;;10.14;86.61;100064.47;5033556;28;20094;-73
2021/04/03 05:26:11;;;;;;;24.73;20.45;;;;;;;10.10;86.54;100040.28;5033296;28;20026;-72
2021/04/03 05:28:36;;;;;;;25.00;21.48;;;;;;;10.10;86.69;100055.75;5033519;28;20033;-73
2021/04/03 05:31:02;;;;;;;25.33;21.50;;;;;;;10.09;86.75;100066.91;5033782;28;20021;-73
2021/04/03 05:33:27;;;;;;;28.30;21.10;;;;;;;10.03;87.49;100065.00;5033477;28;20066;-73
2021/04/03 05:35:53;;;;;;;27.33;21.73;;;;;;;10.13;87.47;100063.59;5033213;28;20114;-72
2021/04/03 05:38:18;;;;;;;30.50;22.83;;;;;;;10.21;87.23;100069.00;5016498;28;20057;-73
2021/04/03 05:40:44;;;;;;;29.45;21.80;;;;;;;10.22;87.33;100052.72;5018545;28;20088;-72
2021/04/03 05:43:10;;;;;;;25.30;21.83;;;;;;;10.05;87.53;100018.63;5031041;28;20416;-71
2021/04/03 05:45:39;;;;;;;24.17;20.52;;;;;;;9.88;87.30;100000.94;5030798;28;20041;-73
2021/04/03 05:48:05;;;;;;;26.93;21.40;;;;;;;10.30;88.01;100058.97;5030638;28;20037;-73
2021/04/03 05:50:31;;;;;;;26.10;22.23;;;;;;;10.39;88.12;100058.41;5030830;28;20037;-73
2021/04/03 05:53:00;;;;;;;25.65;21.60;;;;;;;10.42;87.77;100052.47;5014298;28;20045;-73
2021/04/03 05:55:26;;;;;;;27.08;22.42;;;;;;;10.56;87.63;100056.34;5030420;28;20029;-73
2021/04/03 05:57:51;;;;;;;33.45;25.77;;;;;;;10.51;87.15;100043.28;5030827;28;20072;-73
2021/04/03 06:00:20;;;;;;;27.08;22.45;;;;;;;10.66;87.05;100060.94;5030634;28;20129;-73
2021/04/03 06:02:47;;;;;;;26.92;21.20;;;;;;;10.66;87.31;100060.09;5030262;28;20056;-73
2021/04/03 06:05:12;;;;;;;24.90;21.65;;;;;;;10.61;87.14;100041.88;5013793;28;20033;-72
2021/04/03 06:07:41;;;;;;;28.35;22.55;;;;;;;10.71;87.18;100057.66;5030268;28;20091;-73
2021/04/03 06:10:09;;;;;;;25.27;20.60;;;;;;;10.82;87.34;100064.00;5030455;28;20112;-73
2021/04/03 06:12:49;;;;;;;25.48;21.85;;;;;;;10.78;87.18;100068.22;5030200;28;20065;-73
2021/04/03 06:15:33;;;;;;;27.95;22.60;;;;;;;10.80;87.05;100065.66;5032114;28;20041;-73
2021/04/03 06:18:00;;;;;;;27.38;20.92;;;;;;;10.58;86.93;100007.34;5032619;28;20073;-73
2021/04/03 06:20:30;;;;;;;25.15;21.65;;;;;;;10.91;86.61;100066.84;5032808;28;20022;-73
2021/04/03 06:22:55;;;;;;;24.38;21.77;;;;;;;10.94;86.76;100053.13;5031343;28;20057;-73
2021/04/03 06:25:21;;;;;;;26.80;21.42;;;;;;;11.03;86.43;100068.03;5030927;28;20522;-73
2021/04/03 06:27:47;;;;;;;29.10;23.33;;;;;;;11.02;86.79;100062.00;5032456;28;20479;-73
2021/04/03 06:30:34;;;;;;;24.50;21.90;;;;;;;10.95;86.14;100044.56;5032244;28;20486;-73
2021/04/03 06:33:17;;;;;;;27.05;22.70;;;;;;;11.14;85.87;100064.03;5032312;28;20061;-73
2021/04/03 06:35:42;;;;;;;28.63;23.60;;;;;;;11.14;86.41;100066.63;5032399;28;20025;-73
2021/04/03 06:38:23;;;;;;;26.85;22.48;;;;;;;11.22;86.60;100072.03;5049210;28;20071;-73
2021/04/03 06:40:49;;;;;;;27.47;23.30;;;;;;;11.25;86.50;100064.34;5027981;28;20474;-73
2021/04/03 06:43:18;;;;;;;28.88;22.95;;;;;;;11.29;87.00;100066.16;5013377;28;20499;-73
2021/04/03 06:45:45;;;;;;;24.50;20.60;;;;;;;11.32;86.70;100068.84;5029775;28;20029;-73
2021/04/03 06:48:12;;;;;;;24.00;20.92;;;;;;;11.31;86.98;100057.66;5029609;28;20037;-73
2021/04/03 06:50:49;;;;;;;24.08;21.45;;;;;;;11.33;86.70;100058.56;5029604;28;20053;-73
2021/04/03 06:53:18;;;;;;;26.23;20.50;;;;;;;11.39;86.56;100052.69;5013196;28;20183;-71
2021/04/03 06:55:47;;;;;;;25.17;20.95;;;;;;;11.44;86.40;100061.44;5029067;28;20041;-73
2021/04/03 06:58:13;;;;;;;25.48;20.80;;;;;;;11.22;86.96;100016.03;5043235;28;20037;-73
2021/04/03 07:00:39;;;;;;;25.08;21.35;;;;;;;11.57;86.50;100075.56;5032800;28;20508;-73
2021/04/03 07:03:15;;;;;;;35.17;26.70;;;;;;;11.56;86.13;100066.03;5046592;28;20045;-73
2021/04/03 07:05:41;;;;;;;30.17;23.83;;;;;;;11.53;86.53;100089.25;5049448;28;20036;-73
2021/04/03 07:08:07;;;;;;;67.10;46.15;;;;;;;11.62;86.04;100075.69;5049151;28;20021;-73
2021/04/03 07:10:35;;;;;;;30.95;26.02;;;;;;;11.77;85.52;100073.47;5049257;28;20529;-73
2021/04/03 07:13:01;;;;;;;43.75;34.30;;;;;;;11.87;85.84;100060.78;5032341;28;20033;-73
2021/04/03 07:15:28;;;;;;;29.85;23.98;;;;;;;12.01;85.36;100067.19;5009316;28;20071;-73
2021/04/03 07:17:54;;;;;;;35.28;31.27;;;;;;;12.08;84.41;100069.09;5009527;28;20034;-73
2021/04/03 07:20:22;;;;;;;40.10;32.22;;;;;;;12.23;83.67;100065.16;4992921;28;20576;-73
2021/04/03 07:22:51;;;;;;;26.77;22.00;;;;;;;12.31;83.59;100068.78;5009162;28;20042;-73
2021/04/03 07:25:19;;;;;;;25.83;19.00;;;;;;;12.40;83.56;100069.00;4992922;28;20025;-73
2021/04/03 07:27:46;;;;;;;22.02;18.00;;;;;;;12.27;83.20;100041.09;4992701;28;20127;-72
2021/04/03 07:30:13;;;;;;;22.05;18.40;;;;;;;12.54;83.66;100064.13;5009456;28;20044;-73
2021/04/03 07:32:44;;;;;;;20.00;16.90;;;;;;;12.67;82.71;100072.19;5009331;28;20042;-73
2021/04/03 07:35:23;;;;;;;18.90;14.02;;;;;;;12.84;81.74;100080.31;5009367;28;20504;-71
2021/04/03 07:37:50;;;;;;;18.60;14.75;;;;;;;12.98;80.90;100071.09;5008799;28;20061;-74
2021/04/03 07:40:25;;;;;;;22.95;13.27;;;;;;;13.11;79.53;100080.03;5008571;28;20045;-73
2021/04/03 07:42:51;;;;;;;21.40;14.77;;;;;;;13.01;79.53;100041.78;5010288;28;20034;-75
2021/04/03 07:45:31;;;;;;;13.52;11.60;;;;;;;13.38;78.16;100077.13;4995600;28;20041;-72
2021/04/03 07:47:57;;;;;;;13.32;11.52;;;;;;;13.17;77.58;100027.41;5008913;28;20042;-75
2021/04/03 07:50:38;;;;;;;14.50;11.20;;;;;;;13.54;76.95;100064.44;4988252;28;20042;-74
2021/04/03 07:53:03;;;;;;;14.63;12.00;;;;;;;13.72;78.06;100067.38;5010104;28;20036;-75
2021/04/03 07:55:30;;;;;;;14.25;12.05;;;;;;;13.93;77.62;100063.38;5024204;28;20026;-73
2021/04/03 07:58:27;;;;;;;14.60;11.68;;;;;;;14.30;75.98;100065.72;5023559;28;20431;-72
2021/04/03 08:00:54;;;;;;;13.40;11.75;;;;;;;14.45;76.43;100067.66;5027905;28;20462;-73
2021/04/03 08:03:24;;;;;;;18.17;10.43;;;;;;;14.58;74.52;100064.41;5029004;28;20071;-73
2021/04/03 08:05:56;;;;;;;12.55;11.25;;;;;;;14.68;74.52;100065.44;5028910;28;20028;-75
2021/04/03 08:08:22;;;;;;;15.05;12.00;;;;;;;14.72;74.31;100065.47;5029651;28;20400;-74
2021/04/03 08:10:48;;;;;;;15.80;12.25;;;;;;;14.66;72.61;100020.34;5021775;28;20056;-74
2021/04/03 08:13:17;;;;;;;12.68;10.85;;;;;;;14.99;72.42;100061.50;5020457;28;20088;-75
2021/04/03 08:15:48;;;;;;;13.32;11.90;;;;;;;15.12;73.70;100065.09;5020179;28;20013;-74
2021/04/03 08:18:13;;;;;;;16.60;13.60;;;;;;;15.22;72.97;100075.63;5020842;28;20038;-73
2021/04/03 08:20:50;;;;;;;15.60;12.27;;;;;;;15.31;72.01;100063.56;5020632;28;20052;-73
2021/04/03 08:23:15;;;;;;;15.40;11.00;;;;;;;15.46;69.21;100054.22;5029208;28;20041;-76
2021/04/03 08:25:52;;;;;;;13.50;10.95;;;;;;;15.50;68.95;100059.47;5027889;28;20026;-74
2021/04/03 08:28:20;;;;;;;16.65;12.77;;;;;;;15.50;69.48;100046.47;5023302;28;20022;-73
2021/04/03 08:30:45;;;;;;;12.48;10.48;;;;;;;15.60;69.48;100062.16;5020797;28;20037;-72
2021/04/03 08:33:13;;;;;;;20.63;12.00;;;;;;;15.65;68.87;100053.53;5020271;28;20026;-73
2021/04/03 08:35:41;;;;;;;15.23;11.27;;;;;;;15.73;68.50;100050.16;5018147;28;20022;-73
2021/04/03 08:38:15;;;;;;;14.88;11.38;;;;;;;15.84;70.14;100043.34;5021648;28;20048;-72
2021/04/03 08:40:42;;;;;;;16.00;11.40;;;;;;;15.88;68.01;100021.66;5015829;28;20515;-73
2021/04/03 08:43:08;;;;;;;13.98;10.48;;;;;;;15.97;67.96;100029.53;5016175;28;20408;-73
2021/04/03 08:45:37;;;;;;;16.10;10.68;;;;;;;16.04;67.55;100025.25;5018078;28;20036;-72
2021/04/03 08:48:06;;;;;;;;;;;;;;;16.22;68.09;100029.72;5020344;28;20108;-74
2021/04/03 08:50:32;;;;;;;19.60;10.68;;;;;;;16.23;69.22;100026.25;5023606;28;19913;-74
2021/04/03 08:52:59;;;;;;;13.30;10.77;;;;;;;16.45;69.00;100018.59;5024334;28;20026;-73
2021/04/03 08:55:26;;;;;;;12.75;10.07;;;;;;;16.70;69.07;100016.97;5022313;28;20491;-73
2021/04/03 08:57:52;;;;;;;14.27;9.85;;;;;;;16.69;67.01;100004.78;5023973;28;20028;-72
2021/04/03 09:00:21;;;;;;;13.77;10.07;;;;;;;16.78;68.17;100014.38;5028295;28;20029;-75
2021/04/03 09:02:48;;;;;;;12.95;9.55;;;;;;;16.90;66.17;100005.75;5025625;28;20558;-75
2021/04/03 09:05:16;;;;;;;14.70;10.75;;;;;;;16.94;67.51;100018.81;5030544;28;20051;-74
2021/04/03 09:07:42;;;;;;;11.63;9.80;;;;;;;17.00;66.53;100025.81;5031315;28;20040;-74
2021/04/03 09:10:14;;;;;;;14.35;9.75;;;;;;;16.97;65.93;100021.47;5033598;28;20033;-74
2021/04/03 09:12:41;;;;;;;13.82;9.07;;;;;;;16.92;64.89;100017.97;5032209;28;20116;-74
2021/04/03 09:15:07;;;;;;;14.68;11.05;;;;;;;16.97;67.84;100011.03;5026789;28;20025;-74
2021/04/03 09:17:34;;;;;;;12.40;10.15;;;;;;;17.05;66.58;100013.66;5032888;28;20476;-73
2021/04/03 09:20:14;;;;;;;16.17;11.05;;;;;;;17.13;68.05;100016.28;5033735;28;20037;-74
2021/04/03 09:22:42;;;;;;;13.43;10.18;;;;;;;17.14;66.73;100003.22;5033224;28;20119;-75
2021/04/03 09:25:17;;;;;;;11.73;10.25;;;;;;;17.14;67.24;100007.59;5032035;28;20463;-74
2021/04/03 09:27:56;;;;;;;17.83;9.75;;;;;;;17.12;64.15;99998.88;5031816;28;20495;-74
2021/04/03 09:30:29;;;;;;;16.13;11.25;;;;;;;17.06;66.50;99989.31;5025857;28;20030;-74
2021/04/03 09:32:54;;;;;;;14.52;10.32;;;;;;;17.16;66.40;100012.81;5022217;28;20097;-72
2021/04/03 09:35:29;;;;;;;14.15;10.30;;;;;;;17.18;66.09;99988.47;5026966;28;20030;-73
2021/04/03 09:38:04;;;;;;;12.82;9.82;;;;;;;17.18;65.29;100003.25;5032872;28;20128;-74
2021/04/03 09:40:46;;;;;;;17.20;10.02;;;;;;;17.36;67.39;100005.00;5031871;28;20477;-74
2021/04/03 09:43:15;;;;;;;13.20;9.77;;;;;;;17.44;66.04;100003.28;5026626;28;20096;-74
2021/04/03 09:45:41;;;;;;;13.88;10.45;;;;;;;17.63;65.39;100002.44;5025548;28;20396;-74
2021/04/03 09:48:10;;;;;;;13.90;8.40;;;;;;;17.72;62.46;99998.97;5015906;28;20037;-74
2021/04/03 09:50:36;;;;;;;16.58;9.30;;;;;;;17.72;62.71;99995.47;5021494;28;20483;-77
2021/04/03 09:53:09;;;;;;;12.45;8.73;;;;;;;17.77;61.66;99988.53;5021613;28;20445;-73
2021/04/03 09:55:35;;;;;;;12.68;8.52;;;;;;;17.91;61.77;99993.75;5013537;28;20029;-73
2021/04/03 09:58:01;;;;;;;12.23;9.05;;;;;;;17.74;60.42;99942.38;5012240;28;20559;-74
2021/04/03 10:00:26;;;;;;;14.85;8.77;;;;;;;18.12;59.39;99979.81;5024089;28;20044;-74
2021/04/03 10:02:52;;;;;;;11.50;8.52;;;;;;;18.19;59.42;99965.00;5032236;28;20443;-74
2021/04/03 10:05:17;;;;;;;12.68;8.35;;;;;;;18.34;58.46;99979.75;5031467;28;20067;-74
2021/04/03 10:07:43;;;;;;;11.55;8.32;;;;;;;18.40;59.16;99974.50;5026111;28;20505;-74
2021/04/03 10:10:09;;;;;;;12.60;8.23;;;;;;;18.65;58.33;99966.59;5029644;28;20099;-75
2021/04/03 10:12:34;;;;;;;10.80;8.63;;;;;;;18.69;58.05;99968.31;5031060;28;20032;-76
2021/04/03 10:15:00;;;;;;;11.80;9.27;;;;;;;18.70;60.30;99972.66;5030375;28;20029;-74
2021/04/03 10:17:25;;;;;;;13.90;9.57;;;;;;;18.65;59.70;99962.22;5032315;28;20025;-74
2021/04/03 10:19:50;;;;;;;14.65;9.40;;;;;;;18.83;60.16;99956.03;5032110;28;20124;-74
2021/04/03 10:22:16;;;;;;;15.90;9.32;;;;;;;18.97;59.80;99955.13;5028402;28;20034;-74
2021/04/03 10:24:41;;;;;;;13.07;9.20;;;;;;;19.01;57.26;99942.00;5031385;28;20543;-73
2021/04/03 10:27:07;;;;;;;11.77;8.82;;;;;;;19.09;57.13;99949.84;5032962;28;20522;-74
2021/04/03 10:29:33;;;;;;;14.35;9.57;;;;;;;19.13;59.03;99937.56;5032664;28;20072;-73
2021/04/03 10:31:58;;;;;;;11.52;8.93;;;;;;;19.14;57.79;99934.06;5032774;28;20036;-74
2021/04/03 10:34:24;;;;;;;12.23;9.35;;;;;;;19.29;58.58;99926.13;5032540;28;20407;-74
2021/04/03 10:36:49;;;;;;;12.95;8.80;;;;;;;19.62;57.06;99928.47;5032566;28;20056;-74
2021/04/03 10:39:15;;;;;;;10.48;7.75;;;;;;;19.81;54.49;99922.19;5032993;28;20476;-74
2021/04/03 10:41:40;;;;;;;11.43;8.52;;;;;;;19.99;55.86;99917.69;5032640;28;20029;-74
2021/04/03 10:44:06;;;;;;;10.30;8.15;;;;;;;20.04;55.32;99918.50;5031493;28;20052;-74
2021/04/03 10:46:31;;;;;;;13.73;8.88;;;;;;;19.78;54.49;99919.59;5032392;28;20078;-74
2021/04/03 10:48:57;;;;;;;13.10;9.00;;;;;;;19.69;56.24;99920.56;5032188;28;20028;-74
2021/04/03 10:51:22;;;;;;;13.23;9.30;;;;;;;19.97;53.82;99917.69;5032531;28;20029;-74
2021/04/03 10:53:48;;;;;;;11.55;8.40;;;;;;;20.27;51.03;99901.63;5032044;28;20034;-74
2021/04/03 10:56:14;;;;;;;10.93;7.72;;;;;;;20.55;50.57;99896.91;5031161;28;20021;-74
2021/04/03 10:58:39;;;;;;;11.20;7.40;;;;;;;20.70;52.63;99895.84;5032248;28;20112;-74
2021/04/03 11:01:05;;;;;;;12.80;7.88;;;;;;;20.85;49.76;99889.53;5031990;28;20385;-74
2021/04/03 11:03:30;;;;;;;11.93;8.10;;;;;;;20.74;50.91;99865.22;5031839;28;20041;-74
2021/04/03 11:05:56;;;;;;;9.82;7.07;;;;;;;20.15;51.62;99834.50;5032050;28;20083;-74
2021/04/03 11:08:21;;;;;;;13.50;7.93;;;;;;;20.00;54.27;99867.00;5032202;28;20057;-74
2021/04/03 11:10:47;;;;;;;13.32;8.05;;;;;;;19.97;53.42;99870.50;5032476;28;20033;-73
2021/04/03 11:13:12;;;;;;;9.38;7.00;;;;;;;19.89;50.65;99869.75;5031854;28;20031;-74
2021/04/03 11:15:38;;;;;;;13.48;8.55;;;;;;;19.67;52.21;99848.97;5029929;28;20099;-74
2021/04/03 11:18:03;;;;;;;11.70;8.07;;;;;;;19.69;54.11;99860.31;5031750;28;20454;-74
2021/04/03 11:20:29;;;;;;;10.20;7.32;;;;;;;19.53;50.84;99832.56;5031593;28;20108;-74
2021/04/03 11:22:55;;;;;;;10.52;8.05;;;;;;;19.79;50.75;99834.00;5031797;28;20025;-74